QLK12D YORG-YSSY
Flight info
| Callsign | QLK12D |
|---|---|
| Flight time | 0h 55m |
| Altitude | 17000 |
| Route | VIRUR W801 AKMIR W113 TESAT |
| Aircraft | DH8D/M-SDFGHRZ/LB1 |
Departure
| Time | 2026-04-17 09:37 |
|---|---|
| Airport | Orange Airport (YORG) |
Arrival
| Time | 2026-04-17 10:32 |
|---|---|
| Airport | Sydney Kingsford Smith International Airport (YSSY) |
| Time | Latitude | Longitude | Altitude | Speed | Heading |
|---|---|---|---|---|---|
| 2026-04-17 07:49 | -33.38121 | 149.12501 | 3106 ft | 0 kts | 252° |
| 2026-04-17 09:33 | -33.38117 | 149.12480 | 3111 ft | 1 kts | 321° |
| 2026-04-17 09:33 | -33.38107 | 149.12479 | 3111 ft | 4 kts | 23° |
| 2026-04-17 09:33 | -33.38081 | 149.12573 | 3111 ft | 14 kts | 64° |
| 2026-04-17 09:33 | -33.38024 | 149.12679 | 3111 ft | 15 kts | 59° |
| 2026-04-17 09:34 | -33.37988 | 149.12772 | 3111 ft | 9 kts | 100° |
| 2026-04-17 09:34 | -33.38025 | 149.12833 | 3111 ft | 11 kts | 124° |
| 2026-04-17 09:34 | -33.38105 | 149.12968 | 3111 ft | 27 kts | 126° |
| 2026-04-17 09:34 | -33.38234 | 149.13181 | 3111 ft | 29 kts | 126° |
| 2026-04-17 09:35 | -33.38345 | 149.13368 | 3111 ft | 23 kts | 124° |
| 2026-04-17 09:35 | -33.38431 | 149.13513 | 3111 ft | 19 kts | 126° |
| 2026-04-17 09:35 | -33.38502 | 149.13634 | 3112 ft | 15 kts | 126° |
| 2026-04-17 09:35 | -33.38562 | 149.13736 | 3112 ft | 13 kts | 127° |
| 2026-04-17 09:36 | -33.38608 | 149.13832 | 3112 ft | 8 kts | 135° |
| 2026-04-17 09:36 | -33.38606 | 149.13803 | 3112 ft | 5 kts | 320° |
| 2026-04-17 09:36 | -33.38572 | 149.13751 | 3112 ft | 21 kts | 305° |
| 2026-04-17 09:36 | -33.38287 | 149.13272 | 3112 ft | 115 kts | 306° |
| 2026-04-17 09:37 | -33.37684 | 149.12317 | 3257 ft | 158 kts | 303° |
| 2026-04-17 09:37 | -33.36912 | 149.11276 | 3815 ft | 172 kts | 305° |
| 2026-04-17 09:37 | -33.36067 | 149.10179 | 4540 ft | 179 kts | 307° |
| 2026-04-17 09:37 | -33.35401 | 149.08955 | 5149 ft | 182 kts | 281° |
| 2026-04-17 09:38 | -33.35458 | 149.07448 | 5612 ft | 187 kts | 248° |
| 2026-04-17 09:38 | -33.36303 | 149.06236 | 6079 ft | 199 kts | 215° |
| 2026-04-17 09:38 | -33.37702 | 149.05914 | 6568 ft | 219 kts | 173° |
| 2026-04-17 09:38 | -33.39011 | 149.06918 | 7175 ft | 235 kts | 131° |
| 2026-04-17 09:39 | -33.39616 | 149.08749 | 7734 ft | 245 kts | 107° |
| 2026-04-17 09:39 | -33.40129 | 149.10692 | 8333 ft | 247 kts | 116° |
| 2026-04-17 09:39 | -33.40854 | 149.12560 | 8917 ft | 247 kts | 123° |
| 2026-04-17 09:39 | -33.41719 | 149.14366 | 9506 ft | 249 kts | 128° |
| 2026-04-17 09:40 | -33.42704 | 149.16138 | 10101 ft | 251 kts | 131° |
| 2026-04-17 09:40 | -33.43751 | 149.17830 | 10658 ft | 253 kts | 134° |
| 2026-04-17 09:40 | -33.44848 | 149.19473 | 11214 ft | 254 kts | 137° |
| 2026-04-17 09:40 | -33.46006 | 149.21112 | 11720 ft | 258 kts | 138° |
| 2026-04-17 09:41 | -33.47156 | 149.22679 | 12241 ft | 260 kts | 140° |
| 2026-04-17 09:41 | -33.47888 | 149.23650 | 12528 ft | 261 kts | 141° |
| 2026-04-17 09:41 | -33.49196 | 149.25354 | 13011 ft | 265 kts | 141° |
| 2026-04-17 09:41 | -33.50460 | 149.26976 | 13547 ft | 265 kts | 141° |
| 2026-04-17 09:42 | -33.51747 | 149.28603 | 13967 ft | 269 kts | 142° |
| 2026-04-17 09:42 | -33.53072 | 149.30266 | 14445 ft | 271 kts | 143° |
| 2026-04-17 09:42 | -33.54416 | 149.31943 | 14913 ft | 273 kts | 143° |
| 2026-04-17 09:42 | -33.55790 | 149.33647 | 15350 ft | 276 kts | 143° |
| 2026-04-17 09:43 | -33.57111 | 149.35284 | 15808 ft | 276 kts | 143° |
| 2026-04-17 09:43 | -33.58469 | 149.36958 | 16169 ft | 280 kts | 143° |
| 2026-04-17 09:43 | -33.59902 | 149.38727 | 16582 ft | 282 kts | 143° |
| 2026-04-17 09:43 | -33.61417 | 149.40591 | 16941 ft | 288 kts | 143° |
| 2026-04-17 09:44 | -33.62886 | 149.42390 | 17049 ft | 302 kts | 143° |
| 2026-04-17 09:44 | -33.64418 | 149.44264 | 17078 ft | 317 kts | 143° |
| 2026-04-17 09:44 | -33.66028 | 149.46242 | 17091 ft | 330 kts | 142° |
| 2026-04-17 09:44 | -33.67751 | 149.48364 | 17079 ft | 340 kts | 142° |
| 2026-04-17 09:45 | -33.69506 | 149.50529 | 17079 ft | 348 kts | 142° |
| 2026-04-17 09:45 | -33.71271 | 149.52708 | 17085 ft | 355 kts | 142° |
| 2026-04-17 09:45 | -33.73054 | 149.54910 | 17078 ft | 360 kts | 142° |
| 2026-04-17 09:45 | -33.74831 | 149.57111 | 17078 ft | 358 kts | 141° |
| 2026-04-17 09:46 | -33.76607 | 149.59312 | 17071 ft | 357 kts | 141° |
| 2026-04-17 09:46 | -33.78431 | 149.61568 | 17077 ft | 356 kts | 142° |
| 2026-04-17 09:46 | -33.80204 | 149.63765 | 17071 ft | 355 kts | 142° |
| 2026-04-17 09:46 | -33.81981 | 149.65967 | 17073 ft | 354 kts | 141° |
| 2026-04-17 09:47 | -33.83712 | 149.68114 | 17078 ft | 353 kts | 141° |
| 2026-04-17 09:47 | -33.85433 | 149.70247 | 17075 ft | 353 kts | 141° |
| 2026-04-17 09:47 | -33.87143 | 149.72365 | 17075 ft | 352 kts | 141° |
| 2026-04-17 09:47 | -33.88879 | 149.74518 | 17080 ft | 352 kts | 141° |
| 2026-04-17 09:48 | -33.90600 | 149.76653 | 17087 ft | 352 kts | 141° |
| 2026-04-17 09:48 | -33.92346 | 149.78821 | 17071 ft | 352 kts | 141° |
| 2026-04-17 09:48 | -33.94068 | 149.80959 | 17068 ft | 352 kts | 141° |
| 2026-04-17 09:48 | -33.95789 | 149.83098 | 17071 ft | 352 kts | 141° |
| 2026-04-17 09:49 | -33.97526 | 149.85257 | 17078 ft | 351 kts | 141° |
| 2026-04-17 09:49 | -33.99260 | 149.87413 | 17078 ft | 351 kts | 141° |
| 2026-04-17 09:49 | -34.00963 | 149.89534 | 17078 ft | 351 kts | 141° |
| 2026-04-17 09:49 | -34.02729 | 149.91734 | 17076 ft | 351 kts | 141° |
| 2026-04-17 09:50 | -34.04430 | 149.93854 | 17075 ft | 351 kts | 141° |
| 2026-04-17 09:50 | -34.06178 | 149.96034 | 17080 ft | 350 kts | 141° |
| 2026-04-17 09:50 | -34.07870 | 149.98146 | 17076 ft | 350 kts | 141° |
| 2026-04-17 09:50 | -34.09600 | 150.00305 | 17073 ft | 350 kts | 141° |
| 2026-04-17 09:51 | -34.11286 | 150.02411 | 17073 ft | 350 kts | 141° |
| 2026-04-17 09:51 | -34.12974 | 150.04523 | 17035 ft | 352 kts | 141° |
| 2026-04-17 09:51 | -34.14720 | 150.06703 | 16724 ft | 355 kts | 141° |
| 2026-04-17 09:51 | -34.16348 | 150.08981 | 16139 ft | 367 kts | 128° |
| 2026-04-17 09:52 | -34.17160 | 150.11871 | 15828 ft | 362 kts | 98° |
| 2026-04-17 09:52 | -34.16939 | 150.14824 | 15507 ft | 355 kts | 77° |
| 2026-04-17 09:52 | -34.16347 | 150.17717 | 15088 ft | 352 kts | 75° |
| 2026-04-17 09:52 | -34.15732 | 150.20587 | 14716 ft | 350 kts | 74° |
| 2026-04-17 09:53 | -34.15122 | 150.23407 | 14354 ft | 348 kts | 75° |
| 2026-04-17 09:53 | -34.14512 | 150.26211 | 13960 ft | 346 kts | 75° |
| 2026-04-17 09:53 | -34.13906 | 150.29002 | 13594 ft | 344 kts | 75° |
| 2026-04-17 09:53 | -34.13303 | 150.31784 | 13230 ft | 341 kts | 74° |
| 2026-04-17 09:54 | -34.12710 | 150.34531 | 12870 ft | 340 kts | 75° |
| 2026-04-17 09:54 | -34.12117 | 150.37282 | 12484 ft | 338 kts | 75° |
| 2026-04-17 09:54 | -34.11521 | 150.40039 | 12133 ft | 330 kts | 74° |
| 2026-04-17 09:54 | -34.10948 | 150.42638 | 11762 ft | 318 kts | 74° |
| 2026-04-17 09:55 | -34.10382 | 150.45218 | 11415 ft | 311 kts | 74° |
| 2026-04-17 09:55 | -34.09837 | 150.47704 | 11109 ft | 308 kts | 74° |
| 2026-04-17 09:55 | -34.09290 | 150.50195 | 10761 ft | 305 kts | 74° |
| 2026-04-17 09:55 | -34.08749 | 150.52666 | 10433 ft | 303 kts | 74° |
| 2026-04-17 09:56 | -34.08221 | 150.55112 | 10113 ft | 300 kts | 74° |
| 2026-04-17 09:56 | -34.07700 | 150.57541 | 9799 ft | 298 kts | 74° |
| 2026-04-17 09:56 | -34.07186 | 150.59935 | 9464 ft | 298 kts | 75° |
| 2026-04-17 09:56 | -34.06662 | 150.62373 | 9138 ft | 297 kts | 74° |
| 2026-04-17 09:57 | -34.06147 | 150.64766 | 8815 ft | 296 kts | 75° |
| 2026-04-17 09:57 | -34.05627 | 150.67181 | 8502 ft | 295 kts | 74° |
| 2026-04-17 09:57 | -34.05110 | 150.69577 | 8185 ft | 294 kts | 74° |
| 2026-04-17 09:57 | -34.04599 | 150.71944 | 7869 ft | 293 kts | 74° |
| 2026-04-17 09:58 | -34.04091 | 150.74289 | 7548 ft | 288 kts | 74° |
| 2026-04-17 09:58 | -34.03584 | 150.76625 | 7239 ft | 283 kts | 74° |
| 2026-04-17 09:58 | -34.03088 | 150.78906 | 6942 ft | 278 kts | 74° |
| 2026-04-17 09:58 | -34.02583 | 150.81100 | 6856 ft | 268 kts | 73° |
| 2026-04-17 09:59 | -34.02081 | 150.83221 | 6744 ft | 260 kts | 73° |
| 2026-04-17 09:59 | -34.01586 | 150.85332 | 6645 ft | 263 kts | 73° |
| 2026-04-17 09:59 | -34.01089 | 150.87447 | 6539 ft | 265 kts | 74° |
| 2026-04-17 09:59 | -34.00585 | 150.89594 | 6427 ft | 268 kts | 74° |
| 2026-04-17 10:00 | -34.00074 | 150.91769 | 6313 ft | 269 kts | 74° |
| 2026-04-17 10:00 | -33.99562 | 150.93942 | 6205 ft | 271 kts | 74° |
| 2026-04-17 10:00 | -33.99043 | 150.96150 | 6090 ft | 272 kts | 75° |
| 2026-04-17 10:00 | -33.98526 | 150.98358 | 5963 ft | 273 kts | 75° |
| 2026-04-17 10:01 | -33.97850 | 151.00462 | 5787 ft | 274 kts | 57° |
| 2026-04-17 10:01 | -33.96494 | 151.02081 | 5611 ft | 272 kts | 29° |
| 2026-04-17 10:01 | -33.94740 | 151.02806 | 5441 ft | 266 kts | 4° |
| 2026-04-17 10:01 | -33.92891 | 151.02933 | 5280 ft | 265 kts | 359° |
| 2026-04-17 10:02 | -33.91048 | 151.03001 | 5114 ft | 266 kts | 358° |
| 2026-04-17 10:02 | -33.89206 | 151.03065 | 4941 ft | 263 kts | 358° |
| 2026-04-17 10:02 | -33.87391 | 151.03130 | 4764 ft | 260 kts | 358° |
| 2026-04-17 10:02 | -33.85576 | 151.03189 | 4588 ft | 258 kts | 358° |
| 2026-04-17 10:03 | -33.83782 | 151.03239 | 4413 ft | 256 kts | 358° |
| 2026-04-17 10:03 | -33.81996 | 151.03273 | 4238 ft | 256 kts | 358° |
| 2026-04-17 10:03 | -33.80186 | 151.03302 | 4065 ft | 257 kts | 358° |
| 2026-04-17 10:03 | -33.78408 | 151.03316 | 3852 ft | 255 kts | 358° |
| 2026-04-17 10:04 | -33.76638 | 151.03326 | 3596 ft | 251 kts | 358° |
| 2026-04-17 10:04 | -33.74945 | 151.03607 | 3324 ft | 244 kts | 20° |
| 2026-04-17 10:04 | -33.73622 | 151.04747 | 3118 ft | 223 kts | 56° |
| 2026-04-17 10:04 | -33.72955 | 151.06346 | 3070 ft | 212 kts | 73° |
| 2026-04-17 10:05 | -33.72435 | 151.08009 | 3039 ft | 211 kts | 81° |
| 2026-04-17 10:05 | -33.72491 | 151.09689 | 3023 ft | 196 kts | 117° |
| 2026-04-17 10:05 | -33.73078 | 151.11130 | 3024 ft | 195 kts | 123° |
| 2026-04-17 10:05 | -33.73906 | 151.12380 | 3004 ft | 186 kts | 156° |
| 2026-04-17 10:06 | -33.75120 | 151.12604 | 3028 ft | 178 kts | 181° |
| 2026-04-17 10:06 | -33.76374 | 151.12854 | 3023 ft | 182 kts | 167° |
| 2026-04-17 10:06 | -33.77605 | 151.13211 | 3020 ft | 184 kts | 172° |
| 2026-04-17 10:06 | -33.78910 | 151.13507 | 2888 ft | 193 kts | 170° |
| 2026-04-17 10:07 | -33.80195 | 151.13858 | 2594 ft | 185 kts | 168° |
| 2026-04-17 10:07 | -33.81420 | 151.14175 | 2312 ft | 175 kts | 169° |
| 2026-04-17 10:07 | -33.82578 | 151.14476 | 2110 ft | 161 kts | 168° |
| 2026-04-17 10:07 | -33.83633 | 151.14748 | 1886 ft | 151 kts | 168° |
| 2026-04-17 10:08 | -33.84617 | 151.15002 | 1673 ft | 134 kts | 167° |
| 2026-04-17 10:08 | -33.85500 | 151.15225 | 1535 ft | 125 kts | 168° |
| 2026-04-17 10:08 | -33.86346 | 151.15440 | 1356 ft | 121 kts | 167° |
| 2026-04-17 10:08 | -33.87161 | 151.15651 | 1175 ft | 117 kts | 168° |
| 2026-04-17 10:09 | -33.87944 | 151.15852 | 1027 ft | 113 kts | 168° |
| 2026-04-17 10:09 | -33.88730 | 151.16051 | 917 ft | 119 kts | 168° |
| 2026-04-17 10:09 | -33.89576 | 151.16272 | 765 ft | 126 kts | 167° |
| 2026-04-17 10:09 | -33.90434 | 151.16499 | 580 ft | 124 kts | 168° |
| 2026-04-17 10:10 | -33.91273 | 151.16722 | 401 ft | 119 kts | 167° |
| 2026-04-17 10:10 | -33.92083 | 151.16945 | 268 ft | 120 kts | 168° |
| 2026-04-17 10:10 | -33.92934 | 151.17149 | 367 ft | 130 kts | 171° |
| 2026-04-17 10:11 | -33.94787 | 151.17198 | 1673 ft | 149 kts | 185° |
| 2026-04-17 10:11 | -33.95880 | 151.17040 | 2166 ft | 171 kts | 185° |
| 2026-04-17 10:11 | -33.97135 | 151.16898 | 2646 ft | 185 kts | 184° |
| 2026-04-17 10:11 | -33.98480 | 151.16794 | 2890 ft | 206 kts | 184° |
| 2026-04-17 10:12 | -34.01169 | 151.16632 | 2994 ft | 208 kts | 183° |
| 2026-04-17 10:12 | -34.02604 | 151.16562 | 3015 ft | 207 kts | 183° |
| 2026-04-17 10:12 | -34.04050 | 151.16490 | 3026 ft | 207 kts | 183° |
| 2026-04-17 10:13 | -34.05503 | 151.16417 | 3025 ft | 207 kts | 183° |
| 2026-04-17 10:13 | -34.06929 | 151.16341 | 3028 ft | 207 kts | 183° |
| 2026-04-17 10:13 | -34.08385 | 151.16264 | 3020 ft | 207 kts | 183° |
| 2026-04-17 10:13 | -34.09822 | 151.16187 | 3028 ft | 207 kts | 183° |
| 2026-04-17 10:14 | -34.11288 | 151.16109 | 3029 ft | 208 kts | 183° |
| 2026-04-17 10:14 | -34.12733 | 151.16029 | 3031 ft | 208 kts | 184° |
| 2026-04-17 10:14 | -34.14127 | 151.15607 | 3019 ft | 209 kts | 208° |
| 2026-04-17 10:14 | -34.15098 | 151.14304 | 3024 ft | 212 kts | 241° |
| 2026-04-17 10:15 | -34.15289 | 151.12526 | 3023 ft | 218 kts | 275° |
| 2026-04-17 10:15 | -34.14620 | 151.10869 | 3033 ft | 230 kts | 308° |
| 2026-04-17 10:15 | -34.13242 | 151.09805 | 3033 ft | 241 kts | 340° |
| 2026-04-17 10:15 | -34.11556 | 151.09701 | 3038 ft | 248 kts | 9° |
| 2026-04-17 10:16 | -34.09837 | 151.10153 | 3035 ft | 253 kts | 13° |
| 2026-04-17 10:16 | -34.08076 | 151.10635 | 3030 ft | 258 kts | 13° |
| 2026-04-17 10:16 | -34.06310 | 151.11116 | 3023 ft | 262 kts | 13° |
| 2026-04-17 10:16 | -34.04509 | 151.11337 | 3014 ft | 263 kts | 353° |
| 2026-04-17 10:17 | -34.02712 | 151.10864 | 3026 ft | 262 kts | 343° |
| 2026-04-17 10:17 | -34.00943 | 151.10321 | 3019 ft | 264 kts | 343° |
| 2026-04-17 10:17 | -33.99159 | 151.09767 | 3024 ft | 264 kts | 343° |
| 2026-04-17 10:17 | -33.97362 | 151.09204 | 3024 ft | 264 kts | 343° |
| 2026-04-17 10:18 | -33.95596 | 151.08647 | 3025 ft | 265 kts | 343° |
| 2026-04-17 10:18 | -33.93791 | 151.08077 | 3020 ft | 265 kts | 341° |
| 2026-04-17 10:18 | -33.92067 | 151.07294 | 3032 ft | 263 kts | 333° |
| 2026-04-17 10:18 | -33.90385 | 151.06400 | 3027 ft | 263 kts | 333° |
| 2026-04-17 10:19 | -33.88720 | 151.05510 | 3026 ft | 262 kts | 333° |
| 2026-04-17 10:19 | -33.87049 | 151.04614 | 3026 ft | 260 kts | 333° |
| 2026-04-17 10:19 | -33.85384 | 151.03728 | 3027 ft | 259 kts | 333° |
| 2026-04-17 10:19 | -33.83740 | 151.02847 | 3025 ft | 258 kts | 333° |
| 2026-04-17 10:20 | -33.82085 | 151.01955 | 3024 ft | 258 kts | 333° |
| 2026-04-17 10:20 | -33.80439 | 151.01071 | 3024 ft | 258 kts | 333° |
| 2026-04-17 10:20 | -33.78799 | 151.00197 | 3024 ft | 257 kts | 333° |
| 2026-04-17 10:20 | -33.77163 | 150.99327 | 3021 ft | 257 kts | 333° |
| 2026-04-17 10:21 | -33.75518 | 150.98460 | 3023 ft | 256 kts | 333° |
| 2026-04-17 10:21 | -33.73900 | 150.97603 | 3025 ft | 255 kts | 333° |
| 2026-04-17 10:21 | -33.72258 | 150.96727 | 3024 ft | 255 kts | 333° |
| 2026-04-17 10:21 | -33.70641 | 150.95868 | 3019 ft | 255 kts | 333° |
| 2026-04-17 10:22 | -33.68997 | 150.94984 | 3019 ft | 255 kts | 332° |
| 2026-04-17 10:22 | -33.67379 | 150.94115 | 3018 ft | 254 kts | 333° |
| 2026-04-17 10:22 | -33.65749 | 150.93286 | 3012 ft | 255 kts | 338° |
| 2026-04-17 10:22 | -33.63967 | 150.93135 | 3018 ft | 258 kts | 8° |
| 2026-04-17 10:23 | -33.62344 | 150.94006 | 3023 ft | 259 kts | 38° |
| 2026-04-17 10:23 | -33.61210 | 150.95670 | 3033 ft | 256 kts | 61° |
| 2026-04-17 10:23 | -33.60343 | 150.97549 | 3028 ft | 256 kts | 63° |
| 2026-04-17 10:23 | -33.59523 | 150.99388 | 2996 ft | 238 kts | 69° |
| 2026-04-17 10:24 | -33.59250 | 151.01201 | 2998 ft | 210 kts | 93° |
| 2026-04-17 10:24 | -33.59219 | 151.02927 | 3004 ft | 207 kts | 93° |
| 2026-04-17 10:24 | -33.59180 | 151.04654 | 3014 ft | 202 kts | 93° |
| 2026-04-17 10:24 | -33.59372 | 151.06265 | 3005 ft | 191 kts | 121° |
| 2026-04-17 10:25 | -33.60254 | 151.07347 | 3011 ft | 177 kts | 161° |
| 2026-04-17 10:25 | -33.61436 | 151.07701 | 3024 ft | 179 kts | 174° |
| 2026-04-17 10:25 | -33.62690 | 151.07999 | 3019 ft | 185 kts | 173° |
| 2026-04-17 10:25 | -33.63954 | 151.08295 | 3016 ft | 186 kts | 173° |
| 2026-04-17 10:26 | -33.65243 | 151.08623 | 3005 ft | 189 kts | 165° |
| 2026-04-17 10:26 | -33.66431 | 151.09308 | 3013 ft | 188 kts | 164° |
| 2026-04-17 10:26 | -33.67687 | 151.09726 | 3014 ft | 187 kts | 169° |
| 2026-04-17 10:26 | -33.68951 | 151.10184 | 3014 ft | 189 kts | 166° |
| 2026-04-17 10:27 | -33.70191 | 151.10661 | 3014 ft | 190 kts | 166° |
| 2026-04-17 10:27 | -33.71456 | 151.11154 | 3014 ft | 190 kts | 166° |
| 2026-04-17 10:27 | -33.72730 | 151.11659 | 3015 ft | 190 kts | 166° |
| 2026-04-17 10:27 | -33.73980 | 151.12148 | 3012 ft | 188 kts | 166° |
| 2026-04-17 10:28 | -33.75219 | 151.12584 | 3010 ft | 181 kts | 171° |
| 2026-04-17 10:28 | -33.76461 | 151.12869 | 3015 ft | 180 kts | 172° |
| 2026-04-17 10:28 | -33.77678 | 151.13197 | 3005 ft | 181 kts | 171° |
| 2026-04-17 10:28 | -33.78962 | 151.13528 | 2817 ft | 192 kts | 172° |
| 2026-04-17 10:29 | -33.80299 | 151.13872 | 2582 ft | 196 kts | 171° |
| 2026-04-17 10:29 | -33.81604 | 151.14224 | 2292 ft | 188 kts | 170° |
| 2026-04-17 10:29 | -33.82848 | 151.14549 | 2022 ft | 177 kts | 170° |
| 2026-04-17 10:29 | -33.84021 | 151.14854 | 1832 ft | 164 kts | 170° |
| 2026-04-17 10:30 | -33.85101 | 151.15134 | 1587 ft | 149 kts | 169° |
| 2026-04-17 10:30 | -33.86063 | 151.15381 | 1424 ft | 134 kts | 170° |
| 2026-04-17 10:30 | -33.86954 | 151.15608 | 1220 ft | 126 kts | 169° |
| 2026-04-17 10:30 | -33.87797 | 151.15825 | 1066 ft | 121 kts | 169° |
| 2026-04-17 10:31 | -33.88609 | 151.16029 | 923 ft | 118 kts | 169° |
| 2026-04-17 10:31 | -33.89418 | 151.16238 | 761 ft | 119 kts | 168° |
| 2026-04-17 10:31 | -33.90226 | 151.16461 | 593 ft | 118 kts | 168° |
| 2026-04-17 10:31 | -33.91033 | 151.16669 | 465 ft | 117 kts | 168° |
| 2026-04-17 10:32 | -33.91838 | 151.16875 | 324 ft | 117 kts | 168° |
| 2026-04-17 10:32 | -33.92637 | 151.17081 | 147 ft | 117 kts | 168° |
| 2026-04-17 10:32 | -33.93436 | 151.17288 | 30 ft | 115 kts | 167° |
| 2026-04-17 10:32 | -33.93986 | 151.17430 | 30 ft | 49 kts | 167° |
| 2026-04-17 10:33 | -33.94239 | 151.17506 | 30 ft | 29 kts | 161° |
| 2026-04-17 10:33 | -33.94384 | 151.17590 | 30 ft | 18 kts | 147° |
| 2026-04-17 10:33 | -33.94470 | 151.17668 | 30 ft | 12 kts | 141° |
| 2026-04-17 10:33 | -33.94514 | 151.17722 | 30 ft | 7 kts | 103° |
| 2026-04-17 10:34 | -33.94484 | 151.17780 | 30 ft | 12 kts | 8° |
| 2026-04-17 10:34 | -33.94378 | 151.17749 | 30 ft | 18 kts | 346° |
| 2026-04-17 10:34 | -33.94267 | 151.17714 | 30 ft | 13 kts | 345° |
| 2026-04-17 10:34 | -33.94194 | 151.17693 | 30 ft | 7 kts | 345° |
| 2026-04-17 10:35 | -33.94170 | 151.17685 | 30 ft | 0 kts | 345° |
| 2026-04-17 10:35 | -33.94169 | 151.17685 | 30 ft | 0 kts | 345° |
| 2026-04-17 10:36 | -33.94166 | 151.17683 | 30 ft | 0 kts | 343° |
| 2026-04-17 10:37 | -33.94164 | 151.17683 | 30 ft | 1 kts | 344° |
| 2026-04-17 10:37 | -33.94125 | 151.17668 | 30 ft | 9 kts | 341° |
| 2026-04-17 10:37 | -33.94043 | 151.17645 | 30 ft | 15 kts | 344° |
| 2026-04-17 10:37 | -33.93921 | 151.17616 | 30 ft | 21 kts | 348° |
| 2026-04-17 10:38 | -33.93766 | 151.17577 | 30 ft | 21 kts | 348° |
| 2026-04-17 10:38 | -33.93627 | 151.17540 | 30 ft | 18 kts | 349° |
| 2026-04-17 10:38 | -33.93513 | 151.17511 | 30 ft | 15 kts | 347° |
| 2026-04-17 10:38 | -33.93414 | 151.17508 | 30 ft | 13 kts | 3° |
| 2026-04-17 10:39 | -33.93312 | 151.17487 | 30 ft | 16 kts | 348° |
| 2026-04-17 10:39 | -33.93197 | 151.17456 | 30 ft | 16 kts | 348° |
| 2026-04-17 10:39 | -33.93098 | 151.17441 | 30 ft | 12 kts | 24° |
| 2026-04-17 10:39 | -33.93065 | 151.17516 | 30 ft | 8 kts | 62° |
| 2026-04-17 10:40 | -33.93011 | 151.17570 | 30 ft | 10 kts | 61° |
| 2026-04-17 10:40 | -33.93013 | 151.17629 | 30 ft | 3 kts | 101° |
| 2026-04-17 10:40 | -33.93013 | 151.17630 | 30 ft | 0 kts | 101° |
| 2026-04-17 10:41 | -33.93019 | 151.17664 | 30 ft | 8 kts | 107° |
| 2026-04-17 10:41 | -33.93054 | 151.17754 | 30 ft | 15 kts | 111° |
| 2026-04-17 10:41 | -33.93079 | 151.17914 | 30 ft | 22 kts | 100° |
| 2026-04-17 10:41 | -33.93107 | 151.18115 | 30 ft | 21 kts | 79° |
| 2026-04-17 10:42 | -33.93012 | 151.18192 | 30 ft | 15 kts | 8° |
| 2026-04-17 10:42 | -33.92938 | 151.18188 | 30 ft | 0 kts | 275° |
| 2026-04-17 10:43 | -33.92961 | 151.18228 | 30 ft | 0 kts | 275° |
| 2026-04-17 10:43 | -33.92970 | 151.18260 | 30 ft | 0 kts | 112° |
| 2026-04-17 10:43 | -33.92963 | 151.18239 | 30 ft | 0 kts | 220° |
| 2026-04-17 10:43 | -33.92964 | 151.18239 | 30 ft | 0 kts | 117° |
| 2026-04-17 10:44 | -33.92970 | 151.18253 | 30 ft | 4 kts | 118° |
| 2026-04-17 10:44 | -33.92972 | 151.18259 | 30 ft | 0 kts | 116° |